createdAt,value
2023-04-20T00:02:08.217Z,9.67
2023-04-20T00:05:11.267Z,9.66
2023-04-20T00:08:12.906Z,9.67
2023-04-20T00:11:14.653Z,9.66
2023-04-20T00:14:16.271Z,9.67
2023-04-20T00:17:17.911Z,9.66
2023-04-20T00:20:19.494Z,9.66
2023-04-20T00:23:21.094Z,9.66
2023-04-20T00:26:22.709Z,9.66
2023-04-20T00:29:25.069Z,9.66
2023-04-20T00:32:27.805Z,9.65
2023-04-20T00:35:29.649Z,9.66
2023-04-20T00:38:31.246Z,9.66
2023-04-20T00:41:34.352Z,9.66
2023-04-20T00:44:36.051Z,9.66
2023-04-20T00:47:37.971Z,9.66
2023-04-20T00:50:40.517Z,9.67
2023-04-20T00:53:42.293Z,9.66
2023-04-20T00:56:44.166Z,9.67
2023-04-20T00:59:46.001Z,9.66
2023-04-20T01:02:49.061Z,9.66
2023-04-20T01:05:51.162Z,9.67
2023-04-20T01:08:53.100Z,9.67
2023-04-20T01:11:54.780Z,9.67
2023-04-20T01:14:56.435Z,9.67
2023-04-20T01:17:58.168Z,9.68
2023-04-20T01:20:59.813Z,9.68
2023-04-20T01:24:02.784Z,9.68
2023-04-20T01:27:07.406Z,9.68
2023-04-20T01:30:10.553Z,9.68
2023-04-20T01:33:12.488Z,9.69
2023-04-20T01:36:14.276Z,9.69
2023-04-20T01:39:16.965Z,9.68
2023-04-20T01:42:18.888Z,9.68
2023-04-20T01:45:20.622Z,9.68
2023-04-20T01:48:22.252Z,9.68
2023-04-20T01:51:23.891Z,9.68
2023-04-20T01:54:25.543Z,9.69
2023-04-20T01:57:27.134Z,9.69
2023-04-20T02:00:28.798Z,9.69
2023-04-20T02:03:30.616Z,9.69
2023-04-20T02:06:32.605Z,9.69
2023-04-20T02:09:35.054Z,9.68
2023-04-20T02:12:37.050Z,9.69
2023-04-20T02:15:39.143Z,9.69
2023-04-20T02:18:40.837Z,9.68
2023-04-20T02:21:42.658Z,9.68
2023-04-20T02:24:44.394Z,9.68
2023-04-20T02:27:46.025Z,9.68
2023-04-20T02:30:47.656Z,9.68
2023-04-20T02:33:49.343Z,9.68
2023-04-20T02:36:50.972Z,9.67
2023-04-20T02:39:52.607Z,9.67
2023-04-20T02:42:54.260Z,9.67
2023-04-20T02:45:55.915Z,9.67
2023-04-20T02:48:57.932Z,9.67
2023-04-20T02:52:00.071Z,9.67
2023-04-20T02:55:02.174Z,9.67
2023-04-20T02:58:03.914Z,9.66
2023-04-20T03:01:25.869Z,9.66
2023-04-20T03:04:34.298Z,9.66
2023-04-20T03:07:56.299Z,9.66
2023-04-20T03:10:59.963Z,9.65
2023-04-20T03:14:01.963Z,9.65
2023-04-20T03:17:03.838Z,9.65
2023-04-20T03:20:08.606Z,9.64
2023-04-20T03:23:10.582Z,9.64
2023-04-20T03:26:12.947Z,9.63
2023-04-20T03:29:20.784Z,9.63
2023-04-20T03:32:22.583Z,9.63
2023-04-20T03:35:24.616Z,9.63
2023-04-20T03:38:26.306Z,9.63
2023-04-20T03:41:28.223Z,9.63
2023-04-20T03:44:30.136Z,9.62
2023-04-20T03:47:31.869Z,9.61
2023-04-20T03:50:33.744Z,9.61
2023-04-20T03:53:35.975Z,9.61
2023-04-20T03:56:38.789Z,9.61
2023-04-20T03:59:40.523Z,9.61
2023-04-20T04:02:43.208Z,9.61
2023-04-20T04:05:45.074Z,9.60
2023-04-20T04:08:46.717Z,9.61
2023-04-20T04:11:48.470Z,9.60
2023-04-20T04:14:50.274Z,9.60
2023-04-20T04:17:55.651Z,9.60
2023-04-20T04:20:58.276Z,9.61
2023-04-20T04:24:00.153Z,9.61
2023-04-20T04:27:39.232Z,9.61
2023-04-20T04:30:41.493Z,9.62
2023-04-20T04:33:47.439Z,9.63
2023-04-20T04:36:58.566Z,9.64
2023-04-20T04:40:08.432Z,9.64
2023-04-20T04:43:10.473Z,9.66
2023-04-20T04:46:14.088Z,9.66
2023-04-20T04:49:16.289Z,9.68
2023-04-20T04:52:18.159Z,9.69
2023-04-20T04:55:20.085Z,9.70
2023-04-20T04:58:21.866Z,9.71
2023-04-20T05:01:23.576Z,9.73
2023-04-20T05:04:25.477Z,9.75
2023-04-20T05:07:27.290Z,9.77
2023-04-20T05:10:29.002Z,9.87
2023-04-20T05:13:33.161Z,9.91
2023-04-20T05:16:34.897Z,9.93
2023-04-20T05:19:36.591Z,9.95
2023-04-20T05:22:38.208Z,9.97
2023-04-20T05:25:39.991Z,9.99
2023-04-20T05:28:41.601Z,10.01
2023-04-20T05:31:44.360Z,10.02
2023-04-20T05:34:46.000Z,10.04
2023-04-20T05:37:48.029Z,10.04
2023-04-20T05:40:50.634Z,10.05
2023-04-20T05:43:56.281Z,10.06
2023-04-20T05:46:57.885Z,10.07
2023-04-20T05:49:59.589Z,10.09
2023-04-20T05:53:01.166Z,10.11
2023-04-20T05:56:03.156Z,10.13
2023-04-20T05:59:05.687Z,10.15
2023-04-20T06:02:07.258Z,10.18
2023-04-20T06:05:09.861Z,10.21
2023-04-20T06:08:12.101Z,10.24
2023-04-20T06:11:13.706Z,10.28
2023-04-20T06:14:15.353Z,10.31
2023-04-20T06:17:17.056Z,10.32
2023-04-20T06:20:19.802Z,10.34
2023-04-20T06:23:21.402Z,10.35
2023-04-20T06:26:23.044Z,10.35
2023-04-20T06:29:24.646Z,10.36
2023-04-20T06:32:26.827Z,10.36
2023-04-20T06:35:28.609Z,10.37
2023-04-20T06:38:30.337Z,10.39
2023-04-20T06:41:31.963Z,10.41
2023-04-20T06:44:36.668Z,10.45
2023-04-20T06:47:38.737Z,10.63
2023-04-20T06:50:47.962Z,10.87
2023-04-20T06:53:49.550Z,10.95
2023-04-20T06:56:51.116Z,10.96
2023-04-20T06:59:53.207Z,10.97
2023-04-20T07:02:54.996Z,10.97
2023-04-20T07:05:56.707Z,10.96
2023-04-20T07:08:58.430Z,10.95
2023-04-20T07:12:00.351Z,10.96
2023-04-20T07:15:06.995Z,10.96
2023-04-20T07:18:08.718Z,10.97
2023-04-20T07:21:10.451Z,11.00
2023-04-20T07:24:12.344Z,11.03
2023-04-20T07:27:14.054Z,11.09
2023-04-20T07:30:17.510Z,11.16
2023-04-20T07:33:20.508Z,11.24
2023-04-20T07:36:22.564Z,11.33
2023-04-20T07:39:26.674Z,11.49
2023-04-20T07:42:28.590Z,11.68
2023-04-20T07:45:30.267Z,11.81
2023-04-20T07:48:34.567Z,11.96
2023-04-20T07:51:36.540Z,12.15
2023-04-20T07:54:38.583Z,12.35
2023-04-20T07:57:41.035Z,12.59
2023-04-20T08:00:45.077Z,12.86
2023-04-20T08:03:46.816Z,13.12
2023-04-20T08:06:48.672Z,13.34
2023-04-20T08:09:50.432Z,13.55
2023-04-20T08:12:52.942Z,13.70
2023-04-20T08:15:54.733Z,13.74
2023-04-20T08:18:56.396Z,13.75
2023-04-20T08:22:00.110Z,13.75
2023-04-20T08:25:03.194Z,13.76
2023-04-20T08:28:08.649Z,13.78
2023-04-20T08:31:13.157Z,13.80
2023-04-20T08:34:15.357Z,13.77
2023-04-20T08:37:17.016Z,13.75
2023-04-20T08:40:19.548Z,13.74
2023-04-20T08:43:22.107Z,13.72
2023-04-20T08:46:24.378Z,13.72
2023-04-20T08:49:29.330Z,13.73
2023-04-20T08:52:32.262Z,13.77
2023-04-20T08:55:33.928Z,13.78
2023-04-20T08:58:37.963Z,13.79
2023-04-20T09:01:41.394Z,13.80
2023-04-20T09:04:43.302Z,13.80
2023-04-20T09:07:52.766Z,13.82
2023-04-20T09:10:54.593Z,13.84
2023-04-20T09:14:06.024Z,13.84
2023-04-20T09:17:07.723Z,13.86
2023-04-20T09:20:10.683Z,13.89
2023-04-20T09:23:17.716Z,13.93
2023-04-20T09:26:19.639Z,14.00
2023-04-20T09:29:23.502Z,14.07
2023-04-20T09:32:26.088Z,14.15
2023-04-20T09:35:27.771Z,14.23
2023-04-20T09:38:30.521Z,14.33
2023-04-20T09:41:32.614Z,14.57
2023-04-20T09:44:38.132Z,14.91
2023-04-20T09:47:42.349Z,15.25
2023-04-20T09:50:50.038Z,15.58
2023-04-20T09:53:58.555Z,15.93
2023-04-20T09:57:01.148Z,16.24
2023-04-20T10:00:06.430Z,16.46
2023-04-20T10:03:09.931Z,16.64
2023-04-20T10:06:23.614Z,16.70
2023-04-20T10:09:25.741Z,16.74
2023-04-20T10:12:27.696Z,16.72
2023-04-20T10:15:40.118Z,16.66
2023-04-20T10:18:42.276Z,16.60
2023-04-20T10:21:49.163Z,16.50
2023-04-20T10:24:50.985Z,16.42
2023-04-20T10:28:03.981Z,16.44
2023-04-20T10:31:12.285Z,16.36
2023-04-20T10:34:14.135Z,16.22
2023-04-20T10:37:15.878Z,16.10
2023-04-20T10:40:26.526Z,15.99
2023-04-20T10:43:29.243Z,15.86
2023-04-20T10:46:31.204Z,15.74
2023-04-20T10:49:33.051Z,15.64
2023-04-20T10:52:36.773Z,15.54
2023-04-20T10:55:38.549Z,15.45
2023-04-20T10:58:41.046Z,15.48
2023-04-20T11:01:47.007Z,15.64
2023-04-20T11:04:48.941Z,15.74
2023-04-20T11:07:53.037Z,15.76
2023-04-20T11:10:54.836Z,15.74
2023-04-20T11:14:08.115Z,15.68
2023-04-20T11:17:09.932Z,15.60
2023-04-20T11:20:14.532Z,15.50
2023-04-20T11:23:16.332Z,15.41
2023-04-20T11:26:18.210Z,15.31
2023-04-20T11:29:54.952Z,15.22
2023-04-20T11:32:56.867Z,15.10
2023-04-20T11:35:59.789Z,14.99
2023-04-20T11:39:09.195Z,14.87
2023-04-20T11:42:11.008Z,14.77
2023-04-20T11:45:12.814Z,14.69
2023-04-20T11:48:14.568Z,14.65
2023-04-20T11:51:16.472Z,14.69
2023-04-20T11:54:18.688Z,14.83
2023-04-20T11:57:23.154Z,15.11
2023-04-20T12:00:25.301Z,15.43
2023-04-20T12:03:27.648Z,15.73
2023-04-20T12:06:31.326Z,15.93
2023-04-20T12:09:37.647Z,16.01
2023-04-20T12:12:41.450Z,16.05
2023-04-20T12:15:43.260Z,16.05
2023-04-20T12:18:45.092Z,15.98
2023-04-20T12:21:47.425Z,15.91
2023-04-20T12:24:49.147Z,15.85
2023-04-20T12:27:51.110Z,15.83
2023-04-20T12:30:52.960Z,15.79
2023-04-20T12:33:54.775Z,15.74
2023-04-20T12:36:56.532Z,15.68
2023-04-20T12:39:58.439Z,15.64
2023-04-20T12:43:00.361Z,15.68
2023-04-20T12:46:02.141Z,15.86
2023-04-20T12:49:04.005Z,16.01
2023-04-20T12:52:07.614Z,16.11
2023-04-20T12:55:10.652Z,16.14
2023-04-20T12:58:12.610Z,16.13
2023-04-20T13:01:14.430Z,16.10
2023-04-20T13:04:16.766Z,16.06
2023-04-20T13:07:18.970Z,16.00
2023-04-20T13:10:20.754Z,15.92
2023-04-20T13:13:22.585Z,15.86
2023-04-20T13:16:24.487Z,15.79
2023-04-20T13:19:30.057Z,15.73
2023-04-20T13:22:31.845Z,15.71
2023-04-20T13:25:34.062Z,15.70
2023-04-20T13:28:37.110Z,15.67
2023-04-20T13:31:40.031Z,15.65
2023-04-20T13:34:41.823Z,15.64
2023-04-20T13:37:44.671Z,15.64
2023-04-20T13:40:46.718Z,15.63
2023-04-20T13:43:48.851Z,15.60
2023-04-20T13:46:50.735Z,15.56
2023-04-20T13:49:52.783Z,15.51
2023-04-20T13:52:54.769Z,15.48
2023-04-20T13:55:57.247Z,15.54
2023-04-20T13:58:59.263Z,15.67
2023-04-20T14:02:01.063Z,15.84
2023-04-20T14:05:03.563Z,16.00
2023-04-20T14:08:06.789Z,16.16
2023-04-20T14:11:08.575Z,16.29
2023-04-20T14:14:10.478Z,16.43
2023-04-20T14:17:12.304Z,16.55
2023-04-20T14:20:14.054Z,16.65
2023-04-20T14:23:15.873Z,16.75
2023-04-20T14:26:18.366Z,16.84
2023-04-20T14:29:20.249Z,16.91
2023-04-20T14:32:22.070Z,16.94
2023-04-20T14:35:25.890Z,16.97
2023-04-20T14:38:27.686Z,16.99
2023-04-20T14:41:30.711Z,17.00
2023-04-20T14:44:34.096Z,16.99
2023-04-20T14:47:35.956Z,16.95
2023-04-20T14:50:38.060Z,16.91
2023-04-20T14:53:39.803Z,16.85
2023-04-20T14:56:41.600Z,16.82
2023-04-20T14:59:43.407Z,16.76
2023-04-20T15:02:45.497Z,16.70
2023-04-20T15:05:47.580Z,16.64
2023-04-20T15:08:49.846Z,16.59
2023-04-20T15:11:51.610Z,16.54
2023-04-20T15:14:53.449Z,16.49
2023-04-20T15:17:55.335Z,16.45
2023-04-20T15:20:57.136Z,16.41
2023-04-20T15:23:58.964Z,16.39
2023-04-20T15:27:01.145Z,16.35
2023-04-20T15:30:03.793Z,16.29
2023-04-20T15:33:07.706Z,16.21
2023-04-20T15:36:10.726Z,16.14
2023-04-20T15:39:13.801Z,16.05
2023-04-20T15:42:20.365Z,15.96
2023-04-20T15:45:24.711Z,15.86
2023-04-20T15:48:28.973Z,15.78
2023-04-20T15:51:31.173Z,15.73
2023-04-20T15:54:33.039Z,15.70
2023-04-20T15:57:37.636Z,15.70
2023-04-20T16:00:42.552Z,15.70
2023-04-20T16:03:46.047Z,15.69
2023-04-20T16:06:48.353Z,15.66
2023-04-20T16:09:50.146Z,15.63
2023-04-20T16:12:52.502Z,15.61
2023-04-20T16:15:55.536Z,15.59
2023-04-20T16:18:57.845Z,15.56
2023-04-20T16:21:59.560Z,15.52
2023-04-20T16:25:01.323Z,15.50
2023-04-20T16:28:05.309Z,15.45
2023-04-20T16:31:07.214Z,15.43
2023-04-20T16:34:11.922Z,15.40
2023-04-20T16:37:14.675Z,15.38
2023-04-20T16:40:17.875Z,15.36
2023-04-20T16:43:19.679Z,15.34
2023-04-20T16:46:22.447Z,15.31
2023-04-20T16:49:24.244Z,15.28
2023-04-20T16:52:30.556Z,15.26
2023-04-20T16:55:32.726Z,15.24
2023-04-20T16:58:34.402Z,15.21
2023-04-20T17:01:39.438Z,15.20
2023-04-20T17:04:41.352Z,15.17
2023-04-20T17:07:44.875Z,15.14
2023-04-20T17:10:46.776Z,15.12
2023-04-20T17:13:51.852Z,15.10
2023-04-20T17:16:58.241Z,15.07
2023-04-20T17:20:00.932Z,15.04
2023-04-20T17:23:06.591Z,15.01
2023-04-20T17:26:08.500Z,14.96
2023-04-20T17:29:10.277Z,14.91
2023-04-20T17:32:12.311Z,14.87
2023-04-20T17:35:14.368Z,14.82
2023-04-20T17:38:16.260Z,14.76
2023-04-20T17:41:17.963Z,14.70
2023-04-20T17:44:20.050Z,14.65
2023-04-20T17:47:22.093Z,14.61
2023-04-20T17:50:23.951Z,14.70
2023-04-20T17:53:33.177Z,14.73
2023-04-20T17:56:34.912Z,14.69
2023-04-20T17:59:36.696Z,14.64
2023-04-20T18:02:39.112Z,14.59
2023-04-20T18:05:41.658Z,14.53
2023-04-20T18:08:44.649Z,14.48
2023-04-20T18:11:46.694Z,14.42
2023-04-20T18:14:51.488Z,14.37
2023-04-20T18:17:53.323Z,14.33
2023-04-20T18:20:55.111Z,14.28
2023-04-20T18:23:56.908Z,14.25
2023-04-20T18:26:58.709Z,14.20
2023-04-20T18:30:00.692Z,14.17
2023-04-20T18:33:02.493Z,14.12
2023-04-20T18:36:05.086Z,14.08
2023-04-20T18:39:08.891Z,14.03
2023-04-20T18:42:11.007Z,13.98
2023-04-20T18:45:12.940Z,13.93
2023-04-20T18:48:14.620Z,13.89
2023-04-20T18:51:16.355Z,13.82
2023-04-20T18:54:18.401Z,13.76
2023-04-20T18:57:25.404Z,13.70
2023-04-20T19:00:27.280Z,13.64
2023-04-20T19:03:29.476Z,13.59
2023-04-20T19:06:31.202Z,13.54
2023-04-20T19:09:33.580Z,13.52
2023-04-20T19:12:37.260Z,13.48
2023-04-20T19:15:40.779Z,13.46
2023-04-20T19:18:43.392Z,13.42
2023-04-20T19:21:45.097Z,13.38
2023-04-20T19:24:46.835Z,13.36
2023-04-20T19:27:49.170Z,13.32
2023-04-20T19:30:51.108Z,13.28
2023-04-20T19:33:53.604Z,13.25
2023-04-20T19:36:56.014Z,13.21
2023-04-20T19:39:58.476Z,13.16
2023-04-20T19:43:00.205Z,13.12
2023-04-20T19:46:02.035Z,13.07
2023-04-20T19:49:04.006Z,13.03
2023-04-20T19:52:05.894Z,12.99
2023-04-20T19:55:08.145Z,12.94
2023-04-20T19:58:10.531Z,12.88
2023-04-20T20:01:12.511Z,12.82
2023-04-20T20:04:14.662Z,12.77
2023-04-20T20:07:17.347Z,12.72
2023-04-20T20:10:20.393Z,12.68
2023-04-20T20:13:22.331Z,12.63
2023-04-20T20:16:24.271Z,12.57
2023-04-20T20:19:26.836Z,12.52
2023-04-20T20:22:28.683Z,12.48
2023-04-20T20:25:30.572Z,12.44
2023-04-20T20:28:32.880Z,12.39
2023-04-20T20:31:34.701Z,12.35
2023-04-20T20:34:36.369Z,12.32
2023-04-20T20:37:39.585Z,12.28
2023-04-20T20:40:41.558Z,12.24
2023-04-20T20:43:43.293Z,12.20
2023-04-20T20:46:45.042Z,12.16
2023-04-20T20:49:46.708Z,12.12
2023-04-20T20:52:49.181Z,12.08
2023-04-20T20:55:53.375Z,12.04
2023-04-20T20:58:55.103Z,12.01
2023-04-20T21:01:56.755Z,11.97
2023-04-20T21:04:58.500Z,11.95
2023-04-20T21:08:00.151Z,11.92
2023-04-20T21:11:01.912Z,11.88
2023-04-20T21:14:03.656Z,11.86
2023-04-20T21:17:05.407Z,11.82
2023-04-20T21:20:08.598Z,11.80
2023-04-20T21:23:10.302Z,11.77
2023-04-20T21:26:12.547Z,11.73
2023-04-20T21:29:14.276Z,11.70
2023-04-20T21:32:16.095Z,11.68
2023-04-20T21:35:17.928Z,11.63
2023-04-20T21:38:19.684Z,11.60
2023-04-20T21:41:21.498Z,11.56
2023-04-20T21:44:23.280Z,11.52
2023-04-20T21:47:25.317Z,11.49
2023-04-20T21:50:27.982Z,11.45
2023-04-20T21:53:29.674Z,11.41
2023-04-20T21:56:31.398Z,11.37
2023-04-20T21:59:33.138Z,11.35
2023-04-20T22:02:35.050Z,11.32
2023-04-20T22:05:37.329Z,11.29
2023-04-20T22:08:39.120Z,11.26
2023-04-20T22:11:40.886Z,11.23
2023-04-20T22:14:42.586Z,11.21
2023-04-20T22:17:47.148Z,11.20
2023-04-20T22:20:49.184Z,11.18
2023-04-20T22:23:51.576Z,11.16
2023-04-20T22:26:53.180Z,11.13
2023-04-20T22:29:55.532Z,11.11
2023-04-20T22:32:57.232Z,11.09
2023-04-20T22:35:59.006Z,11.08
2023-04-20T22:39:00.763Z,11.06
2023-04-20T22:42:02.448Z,11.04
2023-04-20T22:45:04.723Z,11.01
2023-04-20T22:48:06.557Z,10.99
2023-04-20T22:51:08.332Z,10.96
2023-04-20T22:54:10.109Z,10.94
2023-04-20T22:57:11.774Z,10.92
2023-04-20T23:00:14.068Z,10.90
2023-04-20T23:03:16.006Z,10.88
2023-04-20T23:06:18.104Z,10.88
2023-04-20T23:09:20.079Z,10.85
2023-04-20T23:12:21.969Z,10.83
2023-04-20T23:15:23.667Z,10.81
2023-04-20T23:18:25.358Z,10.80
2023-04-20T23:21:28.069Z,10.79
2023-04-20T23:24:29.901Z,10.78
2023-04-20T23:27:31.580Z,10.77
2023-04-20T23:30:33.279Z,10.77
2023-04-20T23:33:35.020Z,10.76
2023-04-20T23:36:36.769Z,10.75
2023-04-20T23:39:38.567Z,10.75
2023-04-20T23:42:40.294Z,10.74
2023-04-20T23:45:42.057Z,10.74
2023-04-20T23:48:44.075Z,10.73
2023-04-20T23:51:45.724Z,10.72
2023-04-20T23:54:47.436Z,10.71
2023-04-20T23:57:49.144Z,10.70
